Aeroporto :
LOGIN :

Iscrizione | Disclaimer

   EN    FR    IT 

 










Sommario :    VFR   VFR Marginale   IFR   IFR Intensivo   IFR Molto Intensivo
Visibilità : 
Base nubi : 
>= 8 km
>= 3000ft
5 / 8 km
1000 / 3000 ft
1500m / 5 km
500 / 1000 ft
800 / 1500m
200 / 500 ft
< 800m
< 200 ft
Simboli :   Temporali  Nebbia  Neve Forte  Precipitazioni Forti  Vento > 20 kt
SIGMETs :   Varie  Temporali  Ghiacco  Turbolenza  Onda orograficha  Ceneri Vulcaniche






- Altitudine del aeroporto : 614 ft
- Codice IATA : CRL


EBCI - Charleroi

ULTIMO METAR :
  • 300950Z 21007KT 180V240 CAVOK 13/08 Q1011 NOSIG

METARs OBSOLETI :
  • 300920Z 22007KT CAVOK 12/08 Q1011 NOSIG
  • 300850Z 20007KT CAVOK 11/08 Q1011 NOSIG
  • 300820Z 21006KT CAVOK 10/07 Q1011 NOSIG
  • 300750Z 20006KT 8000 NSC 08/07 Q1011 NOSIG
  • 300720Z 20005KT 5000 BR NSC 07/06 Q1011 BECMG 8000

TAF TAF EBCI
Valido dal 30 a 06 ore il 01 a 12 ore UTC


300510Z 3006/0112 22004KT 2000 BR MIFG NSC
PROB30
TEMPO 3006/3008 0200 BCFG VV001
BECMG 3008/3010 9999 NSW
BECMG 3020/3022 20016G28KT
BECMG 3023/0101 3500 RA RADZ SCT008 BKN012
PROB40
TEMPO 0101/0106 2500 RADZ DZ SCT004 BKN006
BECMG 0104/0107 24012KT
BECMG 0106/0108 9999 NSW BKN015



MetMap, La meteo Aeronautica in un colpo d'occhio ! - Copyright ORBIFLY Dicembre 2007 - Disclaimer

ORBIFLY MET'MAP TEAM :

Programmazione e sviluppo : Alexandra Zaïnal
Concezione : Baudouin d'Aumeries
Supporto tecnico e logistico : Manuel Goepfert
Aiuto : Marc-Olivier Méhu
Aiuto per la traduzione : Arnaldo La Scala




FONTI E CREDITI :

   NOAA